Airport View

Enter AWOS ICAO identifier for current METAR.

ex. KFNL

KGCD 210025Z AUTO 27004KT 10SM SCT031 OVC050 12/09 A3011 RMK AO2 T01170092

21 Sep 2019 00:30

Frequency: 118.375

Phone: 541-575-1122

Other Area AWOS: KBNO - KBKE - KLGD - KMEH

TAF KBNO 202326Z 2100/2124 29011KT P6SM SCT040 BKN050 TEMPO 2100/2102 BKN030 OVC040 FM210200 28007KT P6SM SCT040 BKN100 FM210900 VRB03KT P6SM VCFG SCT100 FM211800 19007KT P6SM SCT150